Time;durP1;ratioP1;P1;durP2;ratioP2;P2;SDS_P1;SDS_P2;PMS_P1;PMS_P2;Temp;Humidity;BMP_temperature;BMP_pressure;BME280_temperature;BME280_humidity;BME280_pressure;Samples;Min_cycle;Max_cycle;Signal;HPM_P1;HPM_P2
2022/01/08 00:02:22;;;;;;;124.88;54.92;;;;;;;;;;6127096;23;20398;-66
2022/01/08 00:04:59;;;;;;;62.85;30.58;;;;;;;;;;6127062;23;20009;-67
2022/01/08 00:07:34;;;;;;;60.58;31.15;;;;;;;;;;6126653;23;20010;-67
2022/01/08 00:10:00;;;;;;;270.23;116.55;;;;;;;;;;6126140;23;20028;-66
2022/01/08 00:13:05;;;;;;;237.88;105.80;;;;;;;;;;6126891;23;20093;-66
2022/01/08 00:23:30;;;;;;;90.38;39.08;;;;;;;;;;6126901;23;20049;-68
2022/01/08 00:26:00;;;;;;;85.22;41.95;;;;;;;;;;6126596;23;20008;-67
2022/01/08 00:28:42;;;;;;;72.38;36.22;;;;;;;;;;6126453;23;20041;-66
2022/01/08 00:31:22;;;;;;;75.90;35.72;;;;;;;;;;6126659;23;20005;-65
2022/01/08 00:34:01;;;;;;;74.78;33.63;;;;;;;;;;6100885;23;20553;-65
2022/01/08 00:36:27;;;;;;;61.20;29.98;;;;;;;;;;6126569;23;20013;-65
2022/01/08 00:42:31;;;;;;;72.63;34.00;;;;;;;;;;6126819;23;20001;-65
2022/01/08 00:45:04;;;;;;;77.05;33.75;;;;;;;;;;6100504;23;20009;-66
2022/01/08 00:47:29;;;;;;;100.22;46.38;;;;;;;;;;6126530;23;20006;-66
2022/01/08 00:50:05;;;;;;;70.72;34.00;;;;;;;;;;6127778;23;20005;-66
2022/01/08 00:52:51;;;;;;;77.63;35.42;;;;;;;;;;6126622;23;20009;-66
2022/01/08 00:55:32;;;;;;;93.20;41.88;;;;;;;;;;6126341;23;20084;-67
2022/01/08 00:58:00;;;;;;;85.38;41.47;;;;;;;;;;6100521;23;20421;-66
2022/01/08 01:00:27;;;;;;;51.20;24.92;;;;;;;;;;6126199;23;20337;-67
2022/01/08 01:03:06;;;;;;;38.30;19.38;;;;;;;;;;6126156;23;20002;-65
2022/01/08 01:06:07;;;;;;;36.63;17.63;;;;;;;;;;6100249;23;20013;-66
2022/01/08 01:12:21;;;;;;;46.47;22.05;;;;;;;;;;6125649;23;20101;-67
2022/01/08 01:18:25;;;;;;;41.13;20.77;;;;;;;;;;6126433;23;20201;-67
2022/01/08 01:20:53;;;;;;;41.45;19.67;;;;;;;;;;6125881;23;20434;-67
2022/01/08 01:23:39;;;;;;;46.08;24.90;;;;;;;;;;6100246;23;20049;-67
2022/01/08 01:26:24;;;;;;;36.80;18.63;;;;;;;;;;6076234;23;20002;-67
2022/01/08 01:29:29;;;;;;;32.03;17.20;;;;;;;;;;6126296;23;20006;-67
2022/01/08 01:47:02;;;;;;;100.85;54.35;;;;;;;;;;6125891;23;20465;-67
2022/01/08 01:49:36;;;;;;;89.65;48.53;;;;;;;;;;6099996;23;20443;-67
2022/01/08 01:52:32;;;;;;;57.38;31.08;;;;;;;;;;6125853;23;20014;-67
2022/01/08 01:55:01;;;;;;;51.80;27.73;;;;;;;;;;6125627;23;20044;-68
2022/01/08 01:57:35;;;;;;;62.83;34.00;;;;;;;;;;6125617;23;20056;-68
2022/01/08 02:00:23;;;;;;;37.70;20.35;;;;;;;;;;6125532;23;20045;-68
2022/01/08 02:06:24;;;;;;;37.22;19.27;;;;;;;;;;6126138;23;20009;-68
2022/01/08 02:09:09;;;;;;;37.22;19.42;;;;;;;;;;6125222;23;20006;-68
2022/01/08 02:15:42;;;;;;;34.22;18.13;;;;;;;;;;6126009;23;20011;-67
2022/01/08 02:18:08;;;;;;;33.85;18.48;;;;;;;;;;6125839;23;20040;-67
2022/01/08 02:20:52;;;;;;;34.90;18.77;;;;;;;;;;6125581;23;20335;-67
2022/01/08 02:23:42;;;;;;;33.72;17.92;;;;;;;;;;6125709;23;20036;-67
2022/01/08 02:26:09;;;;;;;33.33;17.55;;;;;;;;;;6125755;23;20337;-68
2022/01/08 02:28:42;;;;;;;31.08;16.77;;;;;;;;;;6099710;23;20012;-67
2022/01/08 02:31:29;;;;;;;33.40;17.48;;;;;;;;;;6125378;23;20038;-67
2022/01/08 02:33:56;;;;;;;36.35;18.85;;;;;;;;;;6125131;23;20342;-67
2022/01/08 02:36:28;;;;;;;37.20;19.00;;;;;;;;;;6125558;23;20002;-67
2022/01/08 02:38:57;;;;;;;30.95;16.98;;;;;;;;;;6125333;23;20013;-67
2022/01/08 02:47:55;;;;;;;31.90;17.58;;;;;;;;;;6125349;23;20002;-67
2022/01/08 02:50:31;;;;;;;60.63;33.20;;;;;;;;;;6125390;23;20006;-67
2022/01/08 02:53:03;;;;;;;52.92;28.95;;;;;;;;;;6099275;23;20005;-67
2022/01/08 02:58:33;;;;;;;29.67;15.32;;;;;;;;;;6125245;23;20009;-67
2022/01/08 03:00:59;;;;;;;43.67;20.55;;;;;;;;;;6099534;23;20010;-67
2022/01/08 03:03:45;;;;;;;41.63;22.63;;;;;;;;;;6125215;23;20006;-66
2022/01/08 03:06:41;;;;;;;42.58;21.60;;;;;;;;;;6125273;23;20006;-67
2022/01/08 03:09:07;;;;;;;38.08;20.02;;;;;;;;;;6125639;23;20014;-67
2022/01/08 03:12:05;;;;;;;31.20;16.98;;;;;;;;;;6123842;23;20508;-67
2022/01/08 03:18:25;;;;;;;35.65;18.20;;;;;;;;;;6099388;23;20089;-67
2022/01/08 03:21:02;;;;;;;33.20;16.80;;;;;;;;;;6125569;23;20021;-67
2022/01/08 03:23:49;;;;;;;35.88;18.20;;;;;;;;;;6127382;23;20006;-67
2022/01/08 03:26:37;;;;;;;35.78;17.15;;;;;;;;;;6127367;23;20006;-66
2022/01/08 03:29:08;;;;;;;38.80;19.77;;;;;;;;;;6127267;23;20013;-66
2022/01/08 03:31:47;;;;;;;38.17;18.70;;;;;;;;;;6127080;23;20009;-67
2022/01/08 03:34:24;;;;;;;39.47;19.48;;;;;;;;;;6127205;23;20010;-67
2022/01/08 03:36:52;;;;;;;41.30;17.48;;;;;;;;;;6127925;23;20006;-67
2022/01/08 03:39:25;;;;;;;52.08;18.50;;;;;;;;;;6127312;23;20005;-67
2022/01/08 03:42:19;;;;;;;54.50;21.95;;;;;;;;;;6127081;23;20012;-66
2022/01/08 03:44:45;;;;;;;39.63;18.50;;;;;;;;;;6127493;23;20002;-67
2022/01/08 03:47:54;;;;;;;54.72;20.27;;;;;;;;;;6127059;23;20001;-67
2022/01/08 03:50:33;;;;;;;74.38;26.92;;;;;;;;;;6127013;23;20338;-67
2022/01/08 03:53:30;;;;;;;67.70;24.88;;;;;;;;;;6127159;23;20084;-67
2022/01/08 03:56:02;;;;;;;51.35;20.00;;;;;;;;;;6126785;23;20041;-66
2022/01/08 03:58:36;;;;;;;45.50;18.38;;;;;;;;;;6126874;23;20338;-66
2022/01/08 04:07:24;;;;;;;36.17;15.43;;;;;;;;;;6126763;23;20359;-66
2022/01/08 04:10:07;;;;;;;38.22;16.75;;;;;;;;;;6126742;23;20002;-62
2022/01/08 04:12:46;;;;;;;45.33;20.15;;;;;;;;;;6126634;23;20022;-61
2022/01/08 04:17:52;;;;;;;64.35;30.52;;;;;;;;;;6100757;23;20337;-62
2022/01/08 04:20:20;;;;;;;85.88;43.53;;;;;;;;;;6126626;23;20006;-62
2022/01/08 04:22:58;;;;;;;77.97;40.60;;;;;;;;;;6126872;23;20370;-62
2022/01/08 04:25:44;;;;;;;67.65;33.78;;;;;;;;;;6126827;23;20381;-62
2022/01/08 04:28:40;;;;;;;39.75;20.02;;;;;;;;;;6126529;23;20013;-62
2022/01/08 04:31:15;;;;;;;26.90;14.25;;;;;;;;;;6126557;23;20006;-62
2022/01/08 04:33:59;;;;;;;27.55;15.05;;;;;;;;;;6126514;23;20006;-62
2022/01/08 04:36:34;;;;;;;33.10;16.60;;;;;;;;;;6126705;23;20089;-62
2022/01/08 04:38:59;;;;;;;31.25;15.48;;;;;;;;;;6126803;23;20067;-63
2022/01/08 04:41:33;;;;;;;134.32;73.60;;;;;;;;;;6126407;23;19998;-62
2022/01/08 04:43:59;;;;;;;198.77;107.15;;;;;;;;;;6126615;23;20330;-62
2022/01/08 04:46:25;;;;;;;167.05;89.93;;;;;;;;;;6126448;23;19994;-62
2022/01/08 04:49:22;;;;;;;84.35;48.28;;;;;;;;;;6126568;23;20094;-62
2022/01/08 04:52:03;;;;;;;57.78;31.83;;;;;;;;;;6126449;23;20006;-61
2022/01/08 04:54:36;;;;;;;62.55;34.80;;;;;;;;;;6126499;23;20006;-62
2022/01/08 04:57:02;;;;;;;17.05;11.27;;;;;;;;;;6126430;23;20028;-62
2022/01/08 04:59:33;;;;;;;20.48;12.32;;;;;;;;;;6126360;23;20089;-63
2022/01/08 05:02:01;;;;;;;;;;;;;;;;;;6126784;23;20010;-63
2022/01/08 05:04:41;;;;;;;28.45;17.25;;;;;;;;;;6100454;23;19920;-63
2022/01/08 05:07:10;;;;;;;60.90;32.23;;;;;;;;;;6126326;23;20002;-63
2022/01/08 05:13:21;;;;;;;20.73;13.13;;;;;;;;;;6125844;23;20069;-64
2022/01/08 05:16:23;;;;;;;41.45;19.80;;;;;;;;;;6126223;23;20426;-62
2022/01/08 05:23:00;;;;;;;37.47;18.17;;;;;;;;;;6126483;23;20080;-62
2022/01/08 05:25:25;;;;;;;40.20;22.80;;;;;;;;;;6125640;23;20010;-62
2022/01/08 05:27:57;;;;;;;34.97;19.42;;;;;;;;;;6126050;23;20005;-62
2022/01/08 05:30:53;;;;;;;26.92;15.90;;;;;;;;;;6126039;23;20010;-62
2022/01/08 05:33:45;;;;;;;42.28;24.52;;;;;;;;;;6125764;23;20010;-62
2022/01/08 05:36:17;;;;;;;32.28;19.92;;;;;;;;;;6125824;23;20006;-62
2022/01/08 05:38:51;;;;;;;41.78;26.70;;;;;;;;;;6125885;23;20010;-62
2022/01/08 05:41:29;;;;;;;41.88;28.45;;;;;;;;;;6100190;23;20002;-62
2022/01/08 05:44:11;;;;;;;21.40;14.48;;;;;;;;;;6125762;23;20013;-62
2022/01/08 05:46:44;;;;;;;27.95;18.65;;;;;;;;;;6126023;23;20033;-62
2022/01/08 05:52:29;;;;;;;16.77;11.35;;;;;;;;;;6125773;23;20012;-63
2022/01/08 05:55:03;;;;;;;16.33;11.25;;;;;;;;;;6125866;23;20013;-63
2022/01/08 05:57:28;;;;;;;19.27;12.85;;;;;;;;;;6125777;23;20010;-63
2022/01/08 05:59:56;;;;;;;14.55;10.20;;;;;;;;;;6125544;23;20013;-63
2022/01/08 06:02:55;;;;;;;16.33;9.98;;;;;;;;;;6125697;23;20085;-63
2022/01/08 06:05:55;;;;;;;13.80;9.02;;;;;;;;;;6125816;23;20040;-63
2022/01/08 06:08:26;;;;;;;11.27;7.95;;;;;;;;;;6125674;23;20013;-62
2022/01/08 06:10:52;;;;;;;12.60;8.43;;;;;;;;;;6125286;23;20017;-63
2022/01/08 06:13:23;;;;;;;10.43;8.13;;;;;;;;;;6125768;23;20017;-64
2022/01/08 06:15:54;;;;;;;21.35;15.45;;;;;;;;;;6125644;23;20021;-64
2022/01/08 06:21:37;;;;;;;22.25;15.35;;;;;;;;;;6125516;23;20009;-63
2022/01/08 06:24:05;;;;;;;28.25;16.52;;;;;;;;;;6125507;23;20012;-62
2022/01/08 06:26:32;;;;;;;26.98;16.50;;;;;;;;;;6125543;23;20008;-62
2022/01/08 06:29:24;;;;;;;25.25;16.02;;;;;;;;;;6125630;23;20005;-62
2022/01/08 06:31:49;;;;;;;25.55;16.38;;;;;;;;;;6125568;23;20028;-62
2022/01/08 06:34:44;;;;;;;26.67;15.60;;;;;;;;;;6099601;23;20093;-61
2022/01/08 06:37:10;;;;;;;22.65;13.75;;;;;;;;;;6125366;23;20042;-62
2022/01/08 06:39:38;;;;;;;19.10;12.00;;;;;;;;;;6125335;23;20005;-61
2022/01/08 06:42:12;;;;;;;19.33;10.63;;;;;;;;;;6125319;23;20009;-61
2022/01/08 06:44:50;;;;;;;16.17;10.50;;;;;;;;;;6125539;23;20430;-61
2022/01/08 06:47:34;;;;;;;15.93;10.00;;;;;;;;;;6099466;23;20426;-61
2022/01/08 06:50:07;;;;;;;18.17;12.45;;;;;;;;;;6125167;23;20034;-61
2022/01/08 06:52:40;;;;;;;21.42;13.57;;;;;;;;;;6125571;23;20017;-62
2022/01/08 06:55:08;;;;;;;31.50;17.55;;;;;;;;;;6099343;23;20006;-62
2022/01/08 06:58:00;;;;;;;64.72;32.67;;;;;;;;;;6125217;23;20005;-62
2022/01/08 07:00:42;;;;;;;70.78;35.60;;;;;;;;;;6125111;23;20383;-67
2022/01/08 07:06:33;;;;;;;79.07;42.10;;;;;;;;;;6125893;23;20010;-67
2022/01/08 07:12:44;;;;;;;101.45;52.05;;;;;;;;;;6126303;23;20052;-68
2022/01/08 07:15:27;;;;;;;88.70;46.40;;;;;;;;;;6126940;23;20315;-69
2022/01/08 07:17:53;;;;;;;74.95;40.63;;;;;;;;;;6100831;23;20006;-67
2022/01/08 07:20:54;;;;;;;102.40;50.50;;;;;;;;;;6126284;23;20002;-67
2022/01/08 07:26:54;;;;;;;111.75;56.20;;;;;;;;;;6126615;23;20106;-68
2022/01/08 07:29:35;;;;;;;115.78;55.80;;;;;;;;;;6126393;23;20064;-67
2022/01/08 07:32:06;;;;;;;122.90;59.60;;;;;;;;;;6125956;23;20032;-67
2022/01/08 07:37:30;;;;;;;135.70;64.72;;;;;;;;;;6126034;23;19911;-68
2022/01/08 07:46:36;;;;;;;121.10;63.47;;;;;;;;;;6126962;23;20045;-67
2022/01/08 07:55:58;;;;;;;108.30;59.28;;;;;;;;;;6126924;23;20475;-67
2022/01/08 08:02:23;;;;;;;102.13;53.58;;;;;;;;;;6126645;23;20461;-67
2022/01/08 08:07:41;;;;;;;63.88;32.42;;;;;;;;;;6126728;23;20025;-67
2022/01/08 08:10:17;;;;;;;55.47;29.02;;;;;;;;;;6127544;23;20473;-67
2022/01/08 08:12:44;;;;;;;36.90;21.08;;;;;;;;;;6127389;23;20018;-63
2022/01/08 08:15:57;;;;;;;31.70;18.23;;;;;;;;;;6127944;23;20006;-63
2022/01/08 08:19:10;;;;;;;20.98;13.27;;;;;;;;;;6127962;23;20013;-62
2022/01/08 08:21:40;;;;;;;33.35;17.67;;;;;;;;;;6101845;23;20105;-62
2022/01/08 08:24:20;;;;;;;29.90;16.67;;;;;;;;;;6127842;23;20010;-62
2022/01/08 08:26:47;;;;;;;26.92;17.17;;;;;;;;;;6127733;23;20085;-59
2022/01/08 08:29:32;;;;;;;32.88;19.63;;;;;;;;;;6127939;23;19998;-70
2022/01/08 08:32:02;;;;;;;32.03;18.08;;;;;;;;;;6102693;23;20001;-71
2022/01/08 08:37:14;;;;;;;23.50;13.05;;;;;;;;;;6128560;23;19932;-71
2022/01/08 08:42:57;;;;;;;21.73;11.77;;;;;;;;;;6128001;23;20077;-64
2022/01/08 08:45:50;;;;;;;26.35;15.93;;;;;;;;;;6101988;23;20010;-64
2022/01/08 08:48:37;;;;;;;35.83;23.20;;;;;;;;;;6128146;23;20037;-64
2022/01/08 08:51:09;;;;;;;31.33;18.65;;;;;;;;;;6127967;23;20006;-64
2022/01/08 08:53:56;;;;;;;29.63;16.00;;;;;;;;;;6101840;23;20097;-64
2022/01/08 09:02:51;;;;;;;32.75;16.88;;;;;;;;;;6127537;23;20009;-64
2022/01/08 09:05:24;;;;;;;46.25;24.85;;;;;;;;;;6127950;23;19998;-64
2022/01/08 09:11:22;;;;;;;43.20;22.67;;;;;;;;;;6127110;23;20006;-64
2022/01/08 09:17:44;;;;;;;51.30;24.95;;;;;;;;;;6099184;23;20156;-65
2022/01/08 09:27:04;;;;;;;41.05;22.27;;;;;;;;;;6098253;23;20014;-65
2022/01/08 09:29:47;;;;;;;52.13;25.45;;;;;;;;;;6098283;23;20017;-65
2022/01/08 09:35:47;;;;;;;43.08;20.13;;;;;;;;;;6098371;23;20389;-65
2022/01/08 09:38:14;;;;;;;59.25;23.33;;;;;;;;;;6098454;23;20010;-65
2022/01/08 09:40:46;;;;;;;58.00;23.90;;;;;;;;;;6098053;23;20363;-65
2022/01/08 09:43:19;;;;;;;35.60;17.58;;;;;;;;;;6098057;23;20003;-65
2022/01/08 09:45:59;;;;;;;47.15;21.42;;;;;;;;;;6097667;23;20093;-65
2022/01/08 09:48:29;;;;;;;45.37;21.40;;;;;;;;;;6097807;23;20446;-64
2022/01/08 09:54:28;;;;;;;36.83;16.30;;;;;;;;;;6098531;23;19912;-64
2022/01/08 09:57:13;;;;;;;48.90;20.45;;;;;;;;;;6097949;23;20010;-64
2022/01/08 10:06:59;;;;;;;30.35;16.58;;;;;;;;;;6098220;23;20422;-64
2022/01/08 10:09:46;;;;;;;23.75;13.25;;;;;;;;;;6098189;23;20020;-64
2022/01/08 10:12:12;;;;;;;25.42;14.68;;;;;;;;;;6106764;23;20010;-64
2022/01/08 10:17:56;;;;;;;27.95;14.40;;;;;;;;;;6127389;23;20311;-64
2022/01/08 10:20:32;;;;;;;25.45;14.20;;;;;;;;;;6127297;23;20010;-64
2022/01/08 10:23:18;;;;;;;24.67;12.90;;;;;;;;;;6100958;23;20005;-64
2022/01/08 10:31:53;;;;;;;19.00;10.75;;;;;;;;;;6126577;23;19905;-64
2022/01/08 10:34:27;;;;;;;17.20;11.32;;;;;;;;;;6126766;23;20017;-66
2022/01/08 10:40:32;;;;;;;23.10;13.85;;;;;;;;;;6126782;23;20006;-66
2022/01/08 10:43:00;;;;;;;23.20;13.88;;;;;;;;;;6126587;23;20002;-66
2022/01/08 10:45:25;;;;;;;27.67;16.30;;;;;;;;;;6126987;23;20002;-66
2022/01/08 10:50:42;;;;;;;22.90;13.65;;;;;;;;;;6126895;23;20030;-66
2022/01/08 10:53:11;;;;;;;23.23;13.25;;;;;;;;;;6127126;23;20307;-66
2022/01/08 10:55:57;;;;;;;24.95;13.77;;;;;;;;;;6126613;23;20096;-57
2022/01/08 10:58:43;;;;;;;19.35;11.88;;;;;;;;;;6126832;23;20010;-66
2022/01/08 11:01:28;;;;;;;31.67;18.58;;;;;;;;;;6127107;23;20422;-66
2022/01/08 11:04:11;;;;;;;20.23;12.32;;;;;;;;;;6101035;23;20052;-66
2022/01/08 11:13:22;;;;;;;18.73;11.55;;;;;;;;;;6125590;23;20485;-67
2022/01/08 11:19:31;;;;;;;21.33;12.13;;;;;;;;;;6126420;23;20006;-68
2022/01/08 11:22:07;;;;;;;27.70;14.98;;;;;;;;;;6127120;23;20002;-67
2022/01/08 11:28:13;;;;;;;20.35;10.75;;;;;;;;;;6127640;23;20006;-68
2022/01/08 11:30:45;;;;;;;;;;;;;;;;;;6126907;23;20009;-68
2022/01/08 11:36:48;;;;;;;18.90;11.27;;;;;;;;;;6126797;23;20433;-68
2022/01/08 11:42:51;;;;;;;16.33;10.07;;;;;;;;;;6127872;23;20013;-68
2022/01/08 11:49:07;;;;;;;18.33;11.13;;;;;;;;;;6128585;23;20001;-68
2022/01/08 11:51:35;;;;;;;16.33;9.98;;;;;;;;;;6128229;23;20002;-68
2022/01/08 11:54:07;;;;;;;16.80;10.55;;;;;;;;;;6127683;23;20021;-68
2022/01/08 11:56:48;;;;;;;18.00;9.75;;;;;;;;;;6127239;23;20340;-68
2022/01/08 11:59:37;;;;;;;17.25;9.93;;;;;;;;;;6127775;23;20316;-68
2022/01/08 12:02:29;;;;;;;16.98;9.85;;;;;;;;;;6128830;23;20306;-67
2022/01/08 12:05:14;;;;;;;15.68;9.40;;;;;;;;;;6127776;23;20017;-67
2022/01/08 12:07:52;;;;;;;17.60;10.40;;;;;;;;;;6127886;23;20002;-65
2022/01/08 12:10:31;;;;;;;17.23;10.00;;;;;;;;;;6128451;23;20088;-65
2022/01/08 12:13:19;;;;;;;16.80;9.98;;;;;;;;;;6127871;23;20014;-65
2022/01/08 12:20:10;;;;;;;15.32;9.00;;;;;;;;;;6099613;23;20021;-65
2022/01/08 12:22:38;;;;;;;18.08;10.63;;;;;;;;;;6098872;23;20057;-65
2022/01/08 12:28:53;;;;;;;17.42;11.63;;;;;;;;;;6098513;23;20026;-65
2022/01/08 12:31:26;;;;;;;19.77;11.77;;;;;;;;;;6099269;23;20089;-65
2022/01/08 12:47:04;;;;;;;15.98;9.98;;;;;;;;;;6098741;23;20376;-67
2022/01/08 12:56:05;;;;;;;23.85;13.55;;;;;;;;;;6072996;23;20014;-67
2022/01/08 13:02:12;;;;;;;18.33;12.02;;;;;;;;;;6098264;23;20022;-67
2022/01/08 13:05:15;;;;;;;21.45;12.88;;;;;;;;;;6098505;23;20017;-68
2022/01/08 13:11:24;;;;;;;18.02;10.95;;;;;;;;;;6098569;23;20025;-68
2022/01/08 13:13:56;;;;;;;19.02;12.07;;;;;;;;;;6103663;23;20010;-68
2022/01/08 13:16:44;;;;;;;12.25;7.80;;;;;;;;;;6128233;23;20065;-68
2022/01/08 13:19:14;;;;;;;16.17;10.23;;;;;;;;;;6102064;23;20010;-68
2022/01/08 13:21:59;;;;;;;21.75;12.15;;;;;;;;;;6101953;23;20002;-67
2022/01/08 13:28:00;;;;;;;13.32;8.30;;;;;;;;;;6128321;23;20417;-67
2022/01/08 13:30:54;;;;;;;19.38;11.70;;;;;;;;;;6127411;23;20092;-67
2022/01/08 13:36:30;;;;;;;21.00;12.48;;;;;;;;;;6127207;23;20010;-67
2022/01/08 13:42:33;;;;;;;25.05;13.23;;;;;;;;;;6101557;23;20021;-67
2022/01/08 13:45:13;;;;;;;22.20;11.82;;;;;;;;;;6127706;23;20013;-67
2022/01/08 13:47:49;;;;;;;27.63;15.57;;;;;;;;;;6127302;23;20009;-67
2022/01/08 13:50:36;;;;;;;34.00;17.30;;;;;;;;;;6127176;23;20006;-67
2022/01/08 13:53:05;;;;;;;30.73;15.73;;;;;;;;;;6127173;23;20084;-66
2022/01/08 13:55:40;;;;;;;31.98;15.07;;;;;;;;;;6127450;23;19997;-65
2022/01/08 13:58:20;;;;;;;28.75;14.13;;;;;;;;;;6127057;23;20502;-66
2022/01/08 14:01:17;;;;;;;31.27;15.48;;;;;;;;;;6101635;23;20006;-66
2022/01/08 14:03:49;;;;;;;25.98;12.25;;;;;;;;;;6126863;23;20009;-66
2022/01/08 14:06:25;;;;;;;27.20;14.82;;;;;;;;;;6127003;23;20334;-66
2022/01/08 14:08:59;;;;;;;31.15;15.68;;;;;;;;;;6127529;23;20089;-66
2022/01/08 14:11:26;;;;;;;39.38;18.55;;;;;;;;;;6127168;23;20020;-70
2022/01/08 14:14:24;;;;;;;33.72;17.02;;;;;;;;;;6126427;23;20473;-67
2022/01/08 14:17:00;;;;;;;34.10;18.88;;;;;;;;;;6097933;23;20038;-66
2022/01/08 14:19:46;;;;;;;25.73;13.95;;;;;;;;;;6097590;23;20034;-63
2022/01/08 14:26:11;;;;;;;31.52;16.00;;;;;;;;;;6098494;23;20091;-63
2022/01/08 14:31:32;;;;;;;39.08;20.13;;;;;;;;;;6097647;23;20418;-63
2022/01/08 14:34:22;;;;;;;84.43;44.28;;;;;;;;;;6097410;23;19999;-64
2022/01/08 14:36:49;;;;;;;86.97;46.55;;;;;;;;;;6097995;23;20007;-63
2022/01/08 14:39:29;;;;;;;67.20;38.50;;;;;;;;;;6097600;23;20085;-63
2022/01/08 14:44:51;;;;;;;147.23;87.15;;;;;;;;;;6096997;23;20018;-64
2022/01/08 14:47:34;;;;;;;166.00;92.95;;;;;;;;;;6072154;23;20076;-63
2022/01/08 14:50:30;;;;;;;217.70;106.78;;;;;;;;;;6097546;23;20037;-63
2022/01/08 15:00:20;;;;;;;58.20;31.17;;;;;;;;;;6097626;23;20021;-61
2022/01/08 15:02:52;;;;;;;43.53;25.25;;;;;;;;;;6097367;23;20033;-61
2022/01/08 15:05:31;;;;;;;32.17;18.48;;;;;;;;;;6097769;23;20085;-61
2022/01/08 15:08:02;;;;;;;39.47;22.15;;;;;;;;;;6097481;23;20003;-61
2022/01/08 15:10:36;;;;;;;40.25;25.13;;;;;;;;;;6096797;23;20030;-61
2022/01/08 15:13:08;;;;;;;42.33;24.38;;;;;;;;;;6096213;23;20428;-61
2022/01/08 15:15:43;;;;;;;43.85;24.45;;;;;;;;;;6111745;23;20026;-61
2022/01/08 15:18:10;;;;;;;57.47;35.45;;;;;;;;;;6127820;23;20017;-61
2022/01/08 15:20:35;;;;;;;44.13;24.17;;;;;;;;;;6128003;23;20017;-61
2022/01/08 15:23:07;;;;;;;57.20;28.27;;;;;;;;;;6127820;23;20061;-61
2022/01/08 15:25:34;;;;;;;65.28;34.33;;;;;;;;;;6127286;23;20010;-61
2022/01/08 15:28:14;;;;;;;74.97;39.83;;;;;;;;;;6128023;23;19998;-61
2022/01/08 15:30:39;;;;;;;68.60;37.28;;;;;;;;;;6127574;23;20005;-61
2022/01/08 15:33:09;;;;;;;48.03;26.63;;;;;;;;;;6101934;23;20385;-61
2022/01/08 15:35:41;;;;;;;51.53;31.10;;;;;;;;;;6128011;23;20096;-61
2022/01/08 15:38:08;;;;;;;75.10;37.17;;;;;;;;;;6127948;23;20017;-61
2022/01/08 15:40:33;;;;;;;105.90;45.40;;;;;;;;;;6127081;23;20002;-61
2022/01/08 15:43:05;;;;;;;134.10;55.97;;;;;;;;;;6127049;23;20013;-61
2022/01/08 15:45:33;;;;;;;174.27;67.90;;;;;;;;;;6127635;23;20002;-61
2022/01/08 15:48:06;;;;;;;74.10;31.35;;;;;;;;;;6101972;23;20318;-61
2022/01/08 15:50:32;;;;;;;50.65;23.60;;;;;;;;;;6127656;23;20030;-61
2022/01/08 15:53:09;;;;;;;46.40;23.52;;;;;;;;;;6127817;23;20002;-61
2022/01/08 15:55:45;;;;;;;54.08;27.35;;;;;;;;;;6127513;23;20017;-61
2022/01/08 15:58:11;;;;;;;59.15;29.10;;;;;;;;;;6127567;23;20010;-61
2022/01/08 16:00:52;;;;;;;85.60;42.05;;;;;;;;;;6127343;23;20001;-61
2022/01/08 16:03:25;;;;;;;;;;;;;;;;;;6127823;23;20002;-61
2022/01/08 16:05:57;;;;;;;395.35;152.38;;;;;;;;;;6127499;23;20325;-61
2022/01/08 16:08:32;;;;;;;321.05;123.82;;;;;;;;;;6101495;23;20080;-61
2022/01/08 16:11:07;;;;;;;217.70;88.63;;;;;;;;;;6101540;23;20423;-61
2022/01/08 16:13:39;;;;;;;221.35;90.00;;;;;;;;;;6127040;23;20010;-61
2022/01/08 16:16:04;;;;;;;173.88;75.90;;;;;;;;;;6139735;23;20033;-61
2022/01/08 16:18:30;;;;;;;104.72;49.15;;;;;;;;;;6144562;23;20037;-61
2022/01/08 16:21:00;;;;;;;69.25;33.95;;;;;;;;;;6130022;23;20014;-61
2022/01/08 16:23:43;;;;;;;65.75;32.22;;;;;;;;;;6127170;23;20012;-60
2022/01/08 16:26:16;;;;;;;145.43;63.70;;;;;;;;;;6127275;23;20025;-60
2022/01/08 16:28:44;;;;;;;181.10;79.85;;;;;;;;;;6126934;23;20036;-60
2022/01/08 16:31:23;;;;;;;185.63;83.93;;;;;;;;;;6127281;23;20002;-61
2022/01/08 16:33:51;;;;;;;144.35;70.53;;;;;;;;;;6127441;23;20021;-58
2022/01/08 16:36:20;;;;;;;125.85;60.15;;;;;;;;;;6127658;23;20010;-61
2022/01/08 16:38:45;;;;;;;89.15;44.40;;;;;;;;;;6127647;23;20013;-61
2022/01/08 16:41:13;;;;;;;71.93;36.63;;;;;;;;;;6127208;23;19998;-61
2022/01/08 16:43:39;;;;;;;62.78;33.65;;;;;;;;;;6126593;23;20012;-61
2022/01/08 16:46:13;;;;;;;58.67;31.40;;;;;;;;;;6126100;23;20029;-61
2022/01/08 16:49:01;;;;;;;64.25;33.03;;;;;;;;;;6126531;23;20073;-61
2022/01/08 16:51:29;;;;;;;69.65;34.38;;;;;;;;;;6127089;23;20018;-62
2022/01/08 16:53:59;;;;;;;69.78;35.33;;;;;;;;;;6126708;23;20049;-61
2022/01/08 16:56:29;;;;;;;59.83;29.33;;;;;;;;;;6126565;23;20006;-61
2022/01/08 16:58:55;;;;;;;58.50;29.15;;;;;;;;;;6126745;23;20045;-61
2022/01/08 17:01:21;;;;;;;63.55;32.97;;;;;;;;;;6126213;23;20002;-61
2022/01/08 17:03:54;;;;;;;78.57;40.67;;;;;;;;;;6125792;23;20540;-61
2022/01/08 17:06:21;;;;;;;126.38;60.35;;;;;;;;;;6126145;23;20064;-61
2022/01/08 17:08:53;;;;;;;127.63;63.95;;;;;;;;;;6126264;23;20393;-62
2022/01/08 17:11:21;;;;;;;126.40;59.85;;;;;;;;;;6126507;23;20013;-62
2022/01/08 17:13:49;;;;;;;129.02;59.60;;;;;;;;;;6126572;23;19998;-61
2022/01/08 17:16:15;;;;;;;96.68;45.60;;;;;;;;;;6126346;23;20014;-62
2022/01/08 17:18:41;;;;;;;147.70;54.75;;;;;;;;;;6125928;23;19998;-62
2022/01/08 17:21:07;;;;;;;145.25;51.05;;;;;;;;;;6125727;23;20331;-62
2022/01/08 17:23:48;;;;;;;147.57;59.28;;;;;;;;;;6126403;23;20303;-64
2022/01/08 17:26:15;;;;;;;266.90;118.57;;;;;;;;;;6100777;23;20338;-63
2022/01/08 17:28:47;;;;;;;339.25;157.52;;;;;;;;;;6127094;23;20407;-63
2022/01/08 17:31:15;;;;;;;202.48;90.85;;;;;;;;;;6126604;23;20016;-64
2022/01/08 17:33:47;;;;;;;188.77;89.00;;;;;;;;;;6126293;23;20385;-64
2022/01/08 17:36:21;;;;;;;198.70;92.65;;;;;;;;;;6100728;23;20604;-64
2022/01/08 17:38:50;;;;;;;150.23;70.43;;;;;;;;;;6126252;23;20013;-64
2022/01/08 17:41:18;;;;;;;236.27;103.53;;;;;;;;;;6100373;23;20314;-64
2022/01/08 17:43:55;;;;;;;103.63;50.75;;;;;;;;;;6126551;23;20081;-64
2022/01/08 17:46:29;;;;;;;73.80;36.30;;;;;;;;;;6126576;23;20013;-64
2022/01/08 17:49:08;;;;;;;59.70;28.63;;;;;;;;;;6126559;23;20411;-64
2022/01/08 17:51:37;;;;;;;53.38;26.25;;;;;;;;;;6126590;23;20022;-64
2022/01/08 17:54:39;;;;;;;59.78;29.88;;;;;;;;;;6126707;23;20085;-65
2022/01/08 17:57:22;;;;;;;97.68;46.33;;;;;;;;;;6127456;23;20128;-65
2022/01/08 18:03:45;;;;;;;63.25;32.20;;;;;;;;;;6127366;23;20068;-64
2022/01/08 18:06:24;;;;;;;46.53;24.42;;;;;;;;;;6127343;23;20006;-64
2022/01/08 18:09:08;;;;;;;35.80;20.13;;;;;;;;;;6127268;23;20006;-64
2022/01/08 18:11:39;;;;;;;30.48;18.42;;;;;;;;;;6127261;23;20005;-64
2022/01/08 18:14:21;;;;;;;;;;;;;;;;;;6127741;23;20010;-65
2022/01/08 18:20:32;;;;;;;58.95;30.65;;;;;;;;;;6126149;23;20067;-64
2022/01/08 18:23:09;;;;;;;56.03;29.35;;;;;;;;;;6100955;23;20060;-64
2022/01/08 18:25:41;;;;;;;76.90;42.28;;;;;;;;;;6126632;23;20348;-64
2022/01/08 18:28:16;;;;;;;88.65;48.47;;;;;;;;;;6126829;23;20026;-64
2022/01/08 18:31:01;;;;;;;88.53;47.80;;;;;;;;;;6126502;23;20430;-64
2022/01/08 18:47:30;;;;;;;108.30;49.80;;;;;;;;;;6127464;23;20012;-64
2022/01/08 18:50:03;;;;;;;102.57;51.88;;;;;;;;;;6100825;23;20014;-64
2022/01/08 18:52:47;;;;;;;83.78;45.38;;;;;;;;;;6126843;23;20006;-64
2022/01/08 18:55:28;;;;;;;87.55;48.30;;;;;;;;;;6126431;23;20006;-64
2022/01/08 19:01:29;;;;;;;165.35;75.32;;;;;;;;;;6126901;23;20020;-64
2022/01/08 19:03:55;;;;;;;140.90;68.40;;;;;;;;;;6126415;23;20093;-64
2022/01/08 19:06:29;;;;;;;144.07;67.22;;;;;;;;;;6126790;23;20414;-64
2022/01/08 19:08:59;;;;;;;132.00;63.80;;;;;;;;;;6126882;23;20010;-64
2022/01/08 19:11:54;;;;;;;98.13;50.67;;;;;;;;;;6126727;23;20419;-64
2022/01/08 19:14:32;;;;;;;88.55;46.25;;;;;;;;;;6126519;23;20033;-64
2022/01/08 19:17:03;;;;;;;146.68;92.72;;;;;;;;;;6100996;23;20005;-63
2022/01/08 19:19:28;;;;;;;104.10;56.90;;;;;;;;;;6126061;23;20017;-64
2022/01/08 19:22:05;;;;;;;86.55;47.90;;;;;;;;;;6126793;23;20002;-64
2022/01/08 19:24:30;;;;;;;105.60;59.83;;;;;;;;;;6100873;23;20013;-64
2022/01/08 19:27:08;;;;;;;126.68;71.00;;;;;;;;;;6126424;23;19998;-64
2022/01/08 19:29:35;;;;;;;149.98;72.88;;;;;;;;;;6126091;23;20013;-64
2022/01/08 19:35:00;;;;;;;73.35;35.65;;;;;;;;;;6126611;23;20025;-64
2022/01/08 19:37:35;;;;;;;68.32;35.63;;;;;;;;;;6126570;23;20006;-64
2022/01/08 19:40:09;;;;;;;73.68;46.38;;;;;;;;;;6126409;23;20010;-63
2022/01/08 19:42:50;;;;;;;76.18;46.67;;;;;;;;;;6126345;23;20061;-64
2022/01/08 19:45:16;;;;;;;65.70;37.40;;;;;;;;;;6126108;23;20407;-64
2022/01/08 19:47:43;;;;;;;53.90;29.42;;;;;;;;;;6126598;23;20022;-65